Time;durP1;ratioP1;P1;durP2;ratioP2;P2;SDS_P1;SDS_P2;PMS_P1;PMS_P2;Temp;Humidity;BMP_temperature;BMP_pressure;BME280_temperature;BME280_humidity;BME280_pressure;Samples;Min_cycle;Max_cycle;Signal;HPM_P1;HPM_P2
2022/07/26 00:01:30;;;;;;;6.50;6.20;;;;;;;-143.83;100.00;62900.06;5110751;28;20161;-61
2022/07/26 00:03:55;;;;;;;6.50;6.20;;;;;;;-143.83;100.00;62900.06;5099899;28;20110;-61
2022/07/26 00:06:21;;;;;;;6.47;6.18;;;;;;;-143.83;100.00;62900.06;5113180;28;20042;-60
2022/07/26 00:08:47;;;;;;;6.50;6.20;;;;;;;-143.83;100.00;62900.06;5113313;28;20024;-62
2022/07/26 00:11:13;;;;;;;6.30;6.00;;;;;;;-143.83;100.00;62900.06;5113149;28;20550;-61
2022/07/26 00:13:39;;;;;;;6.47;6.18;;;;;;;-143.83;100.00;62900.06;5113090;28;20106;-62
2022/07/26 00:16:05;;;;;;;6.50;6.20;;;;;;;-143.83;100.00;62900.06;5111689;27;20111;-62
2022/07/26 00:18:30;;;;;;;6.53;6.22;;;;;;;-143.83;100.00;62900.06;5112890;28;20059;-61
2022/07/26 00:20:56;;;;;;;6.20;6.00;;;;;;;-143.83;100.00;62900.06;5113066;28;20040;-62
2022/07/26 00:23:21;;;;;;;6.40;6.10;;;;;;;-143.83;100.00;62900.06;5112988;28;20024;-62
2022/07/26 00:25:47;;;;;;;6.50;6.20;;;;;;;-143.83;100.00;62900.06;5112931;28;20047;-62
2022/07/26 00:28:13;;;;;;;6.60;6.30;;;;;;;-143.83;100.00;62900.06;5113211;28;20050;-61
2022/07/26 00:30:38;;;;;;;6.60;6.30;;;;;;;-143.83;100.00;62900.06;5112713;28;20030;-62
2022/07/26 00:33:05;;;;;;;6.40;6.10;;;;;;;-143.83;100.00;62900.06;5111643;27;20059;-61
2022/07/26 00:35:31;;;;;;;6.30;6.03;;;;;;;-143.83;100.00;62900.06;5112755;28;20030;-61
2022/07/26 00:37:57;;;;;;;6.70;6.40;;;;;;;-143.83;100.00;62900.06;5112821;28;20023;-61
2022/07/26 00:40:23;;;;;;;6.80;6.50;;;;;;;-143.83;100.00;62900.06;5111364;28;20479;-61
2022/07/26 00:42:49;;;;;;;6.53;6.22;;;;;;;-143.83;100.00;62900.06;5112790;27;20044;-60
2022/07/26 00:45:15;;;;;;;6.53;6.22;;;;;;;-143.83;100.00;62900.06;5112729;28;20019;-61
2022/07/26 00:47:41;;;;;;;6.57;6.28;;;;;;;-143.83;100.00;62900.06;5111274;28;20024;-61
2022/07/26 00:50:10;;;;;;;6.50;6.20;;;;;;;-143.83;100.00;62900.06;5105831;28;20039;-61
2022/07/26 00:52:36;;;;;;;6.40;6.10;;;;;;;-143.83;100.00;62900.06;5112380;28;20015;-61
2022/07/26 00:55:01;;;;;;;6.50;6.20;;;;;;;-143.83;100.00;62900.06;5112601;28;20027;-61
2022/07/26 00:57:28;;;;;;;6.60;6.30;;;;;;;-143.83;100.00;62900.06;5112507;28;20023;-60
2022/07/26 00:59:53;;;;;;;6.40;6.10;;;;;;;-143.83;100.00;62900.06;5111505;28;20027;-61
2022/07/26 01:02:19;;;;;;;6.43;6.13;;;;;;;-143.83;100.00;62900.06;5112330;28;20488;-60
2022/07/26 01:04:45;;;;;;;6.53;6.22;;;;;;;-143.83;100.00;62900.06;5112218;28;20530;-61
2022/07/26 01:07:12;;;;;;;6.70;6.40;;;;;;;-143.83;100.00;62900.06;5106255;28;20027;-61
2022/07/26 01:09:38;;;;;;;6.53;6.22;;;;;;;-143.83;100.00;62900.06;5112237;28;20019;-61
2022/07/26 01:12:04;;;;;;;6.50;6.20;;;;;;;-143.83;100.00;62900.06;5112379;28;20023;-62
2022/07/26 01:14:29;;;;;;;6.47;6.18;;;;;;;-143.83;100.00;62900.06;5112484;28;20030;-61
2022/07/26 01:16:55;;;;;;;6.72;6.43;;;;;;;-143.83;100.00;62900.06;5112457;28;20027;-61
2022/07/26 01:19:21;;;;;;;6.72;6.43;;;;;;;-143.83;100.00;62900.06;5111878;28;20398;-62
2022/07/26 01:21:47;;;;;;;6.22;6.00;;;;;;;-143.83;100.00;62900.06;5111905;28;20023;-62
2022/07/26 01:24:12;;;;;;;6.40;6.10;;;;;;;-143.83;100.00;62900.06;5117136;28;20498;-62
2022/07/26 01:26:38;;;;;;;6.50;6.20;;;;;;;-143.83;100.00;62900.06;5112464;28;20051;-61
2022/07/26 01:29:04;;;;;;;6.63;6.32;;;;;;;-143.83;100.00;62900.06;5116471;28;20023;-61
2022/07/26 01:31:29;;;;;;;6.43;6.13;;;;;;;-143.83;100.00;62900.06;5112097;28;20070;-61
2022/07/26 01:33:55;;;;;;;6.63;6.32;;;;;;;-143.83;100.00;62900.06;5111943;28;20024;-61
2022/07/26 01:36:21;;;;;;;6.53;6.22;;;;;;;-143.83;100.00;62900.06;5112021;28;20039;-61
2022/07/26 01:38:47;;;;;;;6.97;6.68;;;;;;;-143.83;100.00;62900.06;5111960;28;20027;-61
2022/07/26 01:41:12;;;;;;;6.50;6.20;;;;;;;-143.83;100.00;62900.06;5111219;28;20070;-61
2022/07/26 01:43:38;;;;;;;6.40;6.10;;;;;;;-143.83;100.00;62900.06;5112273;28;20089;-62
2022/07/26 01:46:06;;;;;;;6.55;6.25;;;;;;;-143.83;100.00;62900.06;5111950;28;20441;-62
2022/07/26 01:48:32;;;;;;;6.60;6.30;;;;;;;-143.83;100.00;62900.06;5110891;28;20038;-61
2022/07/26 01:50:58;;;;;;;6.57;6.28;;;;;;;-143.83;100.00;62900.06;5111754;28;20027;-61
2022/07/26 01:53:24;;;;;;;6.43;6.13;;;;;;;-143.83;100.00;62900.06;5100091;28;20383;-61
2022/07/26 01:55:49;;;;;;;6.40;6.10;;;;;;;-143.83;100.00;62900.06;5112027;28;20066;-60
2022/07/26 01:58:15;;;;;;;6.75;6.45;;;;;;;-143.83;100.00;62900.06;5104843;28;20023;-61
2022/07/26 02:00:40;;;;;;;6.40;6.10;;;;;;;-143.83;100.00;62900.06;5111548;28;20027;-61
2022/07/26 02:03:06;;;;;;;6.50;6.20;;;;;;;-143.83;100.00;62900.06;5106914;28;20157;-62
2022/07/26 02:05:31;;;;;;;6.47;6.18;;;;;;;-143.83;100.00;62900.06;5111804;28;20027;-62
2022/07/26 02:07:57;;;;;;;6.47;6.18;;;;;;;-143.83;100.00;62900.06;5111637;28;20059;-61
2022/07/26 02:10:23;;;;;;;6.40;6.10;;;;;;;-143.83;100.00;62900.06;5113048;28;20084;-61
2022/07/26 02:12:49;;;;;;;6.50;6.20;;;;;;;-143.83;100.00;62900.06;5115471;28;20475;-62
2022/07/26 02:15:15;;;;;;;6.25;6.03;;;;;;;-143.83;100.00;62900.06;5115846;27;20027;-61
2022/07/26 02:17:41;;;;;;;6.50;6.20;;;;;;;-143.83;100.00;62900.06;5114641;28;20394;-61
2022/07/26 02:20:08;;;;;;;6.25;6.03;;;;;;;-143.83;100.00;62900.06;5115682;28;20050;-61
2022/07/26 02:22:33;;;;;;;6.40;6.10;;;;;;;-143.83;100.00;62900.06;5115282;28;20094;-61
2022/07/26 02:24:59;;;;;;;6.60;6.30;;;;;;;-143.83;100.00;62900.06;5115225;28;20106;-60
2022/07/26 02:27:25;;;;;;;6.50;6.20;;;;;;;-143.83;100.00;62900.06;5115138;28;20028;-61
2022/07/26 02:29:50;;;;;;;6.82;6.53;;;;;;;-143.83;100.00;62900.06;5115121;28;20036;-61
2022/07/26 02:32:16;;;;;;;6.68;6.38;;;;;;;-143.83;100.00;62900.06;5114479;27;20461;-61
2022/07/26 02:34:41;;;;;;;6.40;6.10;;;;;;;-143.83;100.00;62900.06;5113341;28;20410;-61
2022/07/26 02:37:07;;;;;;;6.68;6.38;;;;;;;-143.83;100.00;62900.06;5115112;28;20115;-61
2022/07/26 02:39:32;;;;;;;6.53;6.22;;;;;;;-143.83;100.00;62900.06;5115073;28;20024;-61
2022/07/26 02:42:00;;;;;;;6.47;6.18;;;;;;;-143.83;100.00;62900.06;5114790;28;20520;-61
2022/07/26 02:44:26;;;;;;;6.60;6.30;;;;;;;-143.83;100.00;62900.06;5114782;28;20628;-61
2022/07/26 02:46:52;;;;;;;6.40;6.10;;;;;;;-143.83;100.00;62900.06;5115058;28;20391;-61
2022/07/26 02:49:19;;;;;;;6.20;6.00;;;;;;;-143.83;100.00;62900.06;5108093;27;20076;-61
2022/07/26 02:51:45;;;;;;;6.47;6.18;;;;;;;-143.83;100.00;62900.06;5115096;28;20030;-61
2022/07/26 02:54:11;;;;;;;6.63;6.32;;;;;;;-143.83;100.00;62900.06;5114970;28;20024;-60
2022/07/26 02:56:37;;;;;;;6.30;6.03;;;;;;;-143.83;100.00;62900.06;5114335;28;20034;-60
2022/07/26 02:59:03;;;;;;;6.70;6.40;;;;;;;-143.83;100.00;62900.06;5114499;28;20031;-60
2022/07/26 03:01:28;;;;;;;6.60;6.30;;;;;;;-143.83;100.00;62900.06;5114453;28;20030;-61
2022/07/26 03:03:54;;;;;;;6.60;6.30;;;;;;;-143.83;100.00;62900.06;5114525;28;20026;-61
2022/07/26 03:06:19;;;;;;;6.78;6.47;;;;;;;-143.83;100.00;62900.06;5114071;27;20023;-62
2022/07/26 03:08:46;;;;;;;6.50;6.20;;;;;;;-143.83;100.00;62900.06;5113421;28;20394;-61
2022/07/26 03:11:11;;;;;;;6.70;6.40;;;;;;;-143.83;100.00;62900.06;5114260;27;20053;-61
2022/07/26 03:13:37;;;;;;;6.55;6.25;;;;;;;-143.83;100.00;62900.06;5114677;28;20028;-62
2022/07/26 03:16:03;;;;;;;6.60;6.30;;;;;;;-143.83;100.00;62900.06;5114399;28;20098;-61
2022/07/26 03:18:28;;;;;;;6.53;6.22;;;;;;;-143.83;100.00;62900.06;5114043;28;20016;-62
2022/07/26 03:20:54;;;;;;;6.90;6.60;;;;;;;-143.83;100.00;62900.06;5114506;27;20490;-62
2022/07/26 03:23:19;;;;;;;6.65;6.35;;;;;;;-143.83;100.00;62900.06;5111793;27;20034;-61
2022/07/26 03:25:45;;;;;;;6.90;6.60;;;;;;;-143.83;100.00;62900.06;5114340;28;20026;-62
2022/07/26 03:28:11;;;;;;;6.72;6.43;;;;;;;-143.83;100.00;62900.06;5114012;28;20030;-61
2022/07/26 03:30:36;;;;;;;7.00;6.70;;;;;;;-143.83;100.00;62900.06;5113996;28;20028;-61
2022/07/26 03:33:02;;;;;;;7.18;6.88;;;;;;;-143.83;100.00;62900.06;5113914;28;20020;-61
2022/07/26 03:35:27;;;;;;;6.80;6.50;;;;;;;-143.83;100.00;62900.06;5113899;28;20062;-61
2022/07/26 03:37:53;;;;;;;6.88;6.57;;;;;;;-143.83;100.00;62900.06;5113756;28;20020;-61
2022/07/26 03:40:19;;;;;;;6.63;6.32;;;;;;;-143.83;100.00;62900.06;5113097;27;20502;-61
2022/07/26 03:42:45;;;;;;;6.80;6.50;;;;;;;-143.83;100.00;62900.06;5112843;28;20083;-61
2022/07/26 03:45:11;;;;;;;7.00;6.70;;;;;;;-143.83;100.00;62900.06;5111553;27;20051;-61
2022/07/26 03:47:37;;;;;;;6.80;6.50;;;;;;;-143.83;100.00;62900.06;5115660;27;20019;-60
2022/07/26 03:50:04;;;;;;;6.80;6.50;;;;;;;-143.83;100.00;62900.06;5113998;28;20489;-61
2022/07/26 03:52:30;;;;;;;6.90;6.60;;;;;;;-143.83;100.00;62900.06;5113737;28;20022;-61
2022/07/26 03:54:56;;;;;;;6.97;6.68;;;;;;;-143.83;100.00;62900.06;5113373;28;20035;-61
2022/07/26 03:57:22;;;;;;;6.90;6.60;;;;;;;-143.83;100.00;62900.06;5107158;27;20509;-61
2022/07/26 03:59:47;;;;;;;6.95;6.65;;;;;;;-143.83;100.00;62900.06;5112620;28;20027;-61
2022/07/26 04:02:13;;;;;;;7.00;6.70;;;;;;;-143.83;100.00;62900.06;5099244;28;20016;-60
2022/07/26 04:04:38;;;;;;;7.00;6.70;;;;;;;-143.83;100.00;62900.06;5113338;28;20023;-60
2022/07/26 04:07:04;;;;;;;7.10;6.80;;;;;;;-143.83;100.00;62900.06;5112864;28;20111;-60
2022/07/26 04:09:29;;;;;;;7.05;6.75;;;;;;;-143.83;100.00;62900.06;5113055;28;20092;-60
2022/07/26 04:11:55;;;;;;;7.20;6.90;;;;;;;-143.83;100.00;62900.06;5109962;28;20068;-61
2022/07/26 04:14:20;;;;;;;7.10;6.80;;;;;;;-143.83;100.00;62900.06;5110424;27;20181;-61
2022/07/26 04:16:46;;;;;;;7.00;6.70;;;;;;;-143.83;100.00;62900.06;5113405;28;20031;-61
2022/07/26 04:19:12;;;;;;;7.20;6.90;;;;;;;-143.83;100.00;62900.06;5113071;28;20110;-61
2022/07/26 04:21:38;;;;;;;7.22;6.93;;;;;;;-143.83;100.00;62900.06;5112593;27;20425;-61
2022/07/26 04:24:04;;;;;;;7.28;6.97;;;;;;;-143.83;100.00;62900.06;5112935;28;20043;-60
2022/07/26 04:26:29;;;;;;;7.00;6.70;;;;;;;-143.83;100.00;62900.06;5123320;27;20125;-60
2022/07/26 04:28:55;;;;;;;7.40;7.10;;;;;;;-143.83;100.00;62900.06;5112448;28;20030;-60
2022/07/26 04:31:21;;;;;;;7.32;7.03;;;;;;;-143.83;100.00;62900.06;5109217;27;20039;-61
2022/07/26 04:33:46;;;;;;;7.10;6.80;;;;;;;-143.83;100.00;62900.06;5106376;28;20037;-62
2022/07/26 04:36:11;;;;;;;7.30;7.00;;;;;;;-143.83;100.00;62900.06;5107134;28;20023;-61
2022/07/26 04:38:37;;;;;;;7.25;6.95;;;;;;;-143.83;100.00;62900.06;5103633;28;20011;-60
2022/07/26 04:41:03;;;;;;;7.20;6.90;;;;;;;-143.83;100.00;62900.06;5103277;28;20051;-62
2022/07/26 04:43:29;;;;;;;7.30;7.00;;;;;;;-143.83;100.00;62900.06;5102722;28;20442;-61
2022/07/26 04:45:56;;;;;;;7.30;7.00;;;;;;;-143.83;100.00;62900.06;5112360;28;20030;-61
2022/07/26 04:48:22;;;;;;;7.20;6.90;;;;;;;-143.83;100.00;62900.06;5110546;27;20039;-60
2022/07/26 04:50:48;;;;;;;7.00;6.70;;;;;;;-143.83;100.00;62900.06;5112632;28;20438;-61
2022/07/26 04:53:13;;;;;;;7.00;6.70;;;;;;;-143.83;100.00;62900.06;5112417;28;20055;-61
2022/07/26 04:55:40;;;;;;;7.25;6.95;;;;;;;-143.83;100.00;62900.06;5112253;28;20483;-60
2022/07/26 04:58:06;;;;;;;7.38;7.07;;;;;;;-143.83;100.00;62900.06;5110767;28;20043;-61
2022/07/26 05:00:31;;;;;;;7.43;7.13;;;;;;;-143.83;100.00;62900.06;5110555;28;20035;-62
2022/07/26 05:02:59;;;;;;;7.40;7.10;;;;;;;-143.83;100.00;62900.06;5110995;28;20491;-61
2022/07/26 05:05:28;;;;;;;7.40;7.10;;;;;;;-143.83;100.00;62900.06;5111561;28;20024;-61
2022/07/26 05:07:55;;;;;;;7.40;7.10;;;;;;;-143.83;100.00;62900.06;5104439;28;20076;-61
2022/07/26 05:10:26;;;;;;;7.68;7.38;;;;;;;-143.83;100.00;62900.06;5112452;28;20027;-62
2022/07/26 05:12:52;;;;;;;7.50;7.20;;;;;;;-143.83;100.00;62900.06;5110311;28;20035;-61
2022/07/26 05:15:17;;;;;;;7.47;7.18;;;;;;;-143.83;100.00;62900.06;5111473;28;20032;-62
2022/07/26 05:17:43;;;;;;;7.60;7.30;;;;;;;-143.83;100.00;62900.06;5103740;28;20564;-62
2022/07/26 05:20:11;;;;;;;7.45;7.15;;;;;;;-143.83;100.00;62900.06;5110239;28;20399;-60
2022/07/26 05:22:37;;;;;;;7.40;7.10;;;;;;;-143.83;100.00;62900.06;5110547;28;20039;-63
2022/07/26 05:25:04;;;;;;;7.50;7.20;;;;;;;-143.83;100.00;62900.06;5114830;28;20023;-61
2022/07/26 05:27:30;;;;;;;7.20;6.90;;;;;;;-143.83;100.00;62900.06;5106617;27;20054;-61
2022/07/26 05:29:56;;;;;;;7.32;7.03;;;;;;;-143.83;100.00;62900.06;5110239;28;20439;-61
2022/07/26 05:32:24;;;;;;;7.32;7.03;;;;;;;-143.83;100.00;62900.06;5110431;28;20043;-60
2022/07/26 05:34:50;;;;;;;7.40;7.10;;;;;;;-143.83;100.00;62900.06;5110535;28;20020;-61
2022/07/26 05:37:15;;;;;;;7.28;6.97;;;;;;;-143.83;100.00;62900.06;5105680;28;20034;-62
2022/07/26 05:39:41;;;;;;;7.32;7.03;;;;;;;-143.83;100.00;62900.06;5108937;28;20023;-61
2022/07/26 05:42:06;;;;;;;7.38;7.07;;;;;;;-143.83;100.00;62900.06;5110100;28;20630;-61
2022/07/26 05:44:32;;;;;;;7.50;7.20;;;;;;;-143.83;100.00;62900.06;5098312;28;20394;-61
2022/07/26 05:46:58;;;;;;;7.50;7.20;;;;;;;-143.83;100.00;62900.06;5114543;28;20080;-61
2022/07/26 05:49:24;;;;;;;7.28;6.97;;;;;;;-143.83;100.00;62900.06;5112318;28;20043;-61
2022/07/26 05:51:50;;;;;;;7.18;6.88;;;;;;;-143.83;100.00;62900.06;5114124;28;20041;-62
2022/07/26 05:54:17;;;;;;;7.47;7.18;;;;;;;-143.83;100.00;62900.06;5114219;28;20059;-62
2022/07/26 05:56:43;;;;;;;7.40;7.10;;;;;;;-143.83;100.00;62900.06;5114338;27;20647;-64
2022/07/26 05:59:09;;;;;;;7.63;7.32;;;;;;;-143.83;100.00;62900.06;5098225;28;20055;-64
2022/07/26 06:01:35;;;;;;;7.47;7.18;;;;;;;-143.83;100.00;62900.06;5107068;28;20061;-64
2022/07/26 06:04:00;;;;;;;7.45;7.15;;;;;;;-143.83;100.00;62900.06;5111522;28;20043;-64
2022/07/26 06:06:26;;;;;;;7.40;7.10;;;;;;;-143.83;100.00;62900.06;5111078;28;20023;-66
2022/07/26 06:08:52;;;;;;;7.50;7.20;;;;;;;-143.83;100.00;62900.06;5100484;28;20059;-64
2022/07/26 06:11:17;;;;;;;7.57;7.28;;;;;;;-143.83;100.00;62900.06;5109231;28;20027;-65
2022/07/26 06:13:43;;;;;;;7.43;7.13;;;;;;;-143.83;100.00;62900.06;5099823;28;20047;-62
2022/07/26 06:16:08;;;;;;;7.53;7.22;;;;;;;-143.83;100.00;62900.06;5113487;28;20106;-62
2022/07/26 06:18:34;;;;;;;7.55;7.25;;;;;;;-143.83;100.00;62900.06;5104737;28;20035;-62
2022/07/26 06:20:59;;;;;;;7.63;7.32;;;;;;;-143.83;100.00;62900.06;5114731;27;20032;-63
2022/07/26 06:23:25;;;;;;;7.70;7.40;;;;;;;-143.83;100.00;62900.06;5119929;27;20477;-63
2022/07/26 06:25:50;;;;;;;7.55;7.25;;;;;;;-143.83;100.00;62900.06;5113914;28;20028;-62
2022/07/26 06:28:16;;;;;;;7.35;7.05;;;;;;;-143.83;100.00;62900.06;5118318;27;20023;-63
2022/07/26 06:30:43;;;;;;;7.40;7.10;;;;;;;-143.83;100.00;62900.06;5118241;27;20030;-62
2022/07/26 06:33:10;;;;;;;7.60;7.30;;;;;;;-143.83;100.00;62900.06;5113290;28;20039;-63
2022/07/26 06:35:37;;;;;;;7.43;7.13;;;;;;;-143.83;100.00;62900.06;5111470;28;20027;-61
2022/07/26 06:38:04;;;;;;;7.60;7.30;;;;;;;-143.83;100.00;62900.06;5113671;28;20023;-62
2022/07/26 06:40:30;;;;;;;7.60;7.30;;;;;;;-143.83;100.00;62900.06;5096743;28;20028;-63
2022/07/26 06:42:55;;;;;;;7.65;7.35;;;;;;;-143.83;100.00;62900.06;5107029;28;20133;-65
2022/07/26 06:45:21;;;;;;;7.45;7.15;;;;;;;-143.83;100.00;62900.06;5109975;28;20028;-63
2022/07/26 06:47:47;;;;;;;7.65;7.35;;;;;;;-143.83;100.00;62900.06;5111098;27;20028;-63
2022/07/26 06:50:12;;;;;;;7.40;7.10;;;;;;;-143.83;100.00;62900.06;5110501;28;20387;-63
2022/07/26 06:52:38;;;;;;;7.28;6.97;;;;;;;-143.83;100.00;62900.06;5109558;28;20070;-65
2022/07/26 06:55:05;;;;;;;7.30;7.00;;;;;;;-143.83;100.00;62900.06;5106997;28;20027;-63
2022/07/26 06:57:30;;;;;;;7.40;7.10;;;;;;;-143.83;100.00;62900.06;5103807;28;20130;-63
2022/07/26 06:59:56;;;;;;;7.60;7.30;;;;;;;-143.83;100.00;62900.06;5109973;28;20040;-63
2022/07/26 07:02:22;;;;;;;7.32;7.03;;;;;;;-143.83;100.00;62900.06;5122381;27;20482;-64
2022/07/26 07:04:47;;;;;;;7.20;6.90;;;;;;;-143.83;100.00;62900.06;5112137;27;20031;-63
2022/07/26 07:07:13;;;;;;;7.18;6.88;;;;;;;-143.83;100.00;62900.06;5100746;28;20103;-63
2022/07/26 07:09:38;;;;;;;7.30;7.00;;;;;;;-143.83;100.00;62900.06;5105609;28;20046;-64
2022/07/26 07:12:05;;;;;;;7.43;7.13;;;;;;;-143.83;100.00;62900.06;5109177;28;20534;-64
2022/07/26 07:14:31;;;;;;;7.40;7.10;;;;;;;-143.83;100.00;62900.06;5110128;28;20111;-63
2022/07/26 07:16:57;;;;;;;7.45;7.15;;;;;;;-143.83;100.00;62900.06;5099565;28;20120;-64
2022/07/26 07:19:24;;;;;;;7.35;7.05;;;;;;;-143.83;100.00;62900.06;5116248;27;20088;-63
2022/07/26 07:21:49;;;;;;;6.93;6.63;;;;;;;-143.83;100.00;62900.06;5114593;27;20023;-64
2022/07/26 07:24:15;;;;;;;7.22;6.93;;;;;;;-143.83;100.00;62900.06;5108145;28;20026;-63
2022/07/26 07:26:41;;;;;;;7.45;7.15;;;;;;;-143.83;100.00;62900.06;5110395;28;20390;-63
2022/07/26 07:29:10;;;;;;;7.60;7.30;;;;;;;-143.83;100.00;62900.06;5102039;28;20030;-63
2022/07/26 07:31:36;;;;;;;7.30;7.00;;;;;;;-143.83;100.00;62900.06;5104679;28;20375;-64
2022/07/26 07:34:02;;;;;;;7.50;7.20;;;;;;;-143.83;100.00;62900.06;5110254;28;20027;-63
2022/07/26 07:36:27;;;;;;;7.30;7.00;;;;;;;-143.83;100.00;62900.06;5109711;28;20439;-65
2022/07/26 07:38:53;;;;;;;7.50;7.20;;;;;;;-143.83;100.00;62900.06;5112104;27;20032;-64
2022/07/26 07:41:18;;;;;;;7.40;7.10;;;;;;;-143.83;100.00;62900.06;5108634;28;20039;-64
2022/07/26 07:43:44;;;;;;;7.20;6.90;;;;;;;-143.83;100.00;62900.06;5098345;28;20028;-63
2022/07/26 07:46:11;;;;;;;7.10;6.80;;;;;;;-143.83;100.00;62900.06;5099919;28;20034;-64
2022/07/26 07:48:39;;;;;;;7.28;6.97;;;;;;;-143.83;100.00;62900.06;5110384;28;20111;-64
2022/07/26 07:51:06;;;;;;;7.20;6.90;;;;;;;-143.83;100.00;62900.06;5110742;27;20023;-63
2022/07/26 07:53:31;;;;;;;7.07;6.78;;;;;;;-143.83;100.00;62900.06;5107074;27;20039;-67
2022/07/26 07:55:57;;;;;;;6.95;6.65;;;;;;;-143.83;100.00;62900.06;5108116;27;20085;-67
2022/07/26 07:58:23;;;;;;;7.00;6.70;;;;;;;-143.83;100.00;62900.06;5109409;28;20062;-66
2022/07/26 08:00:48;;;;;;;7.18;6.88;;;;;;;-143.83;100.00;62900.06;5110240;28;20051;-66
2022/07/26 08:03:14;;;;;;;7.03;6.72;;;;;;;-143.83;100.00;62900.06;5107752;28;20362;-66
2022/07/26 08:05:40;;;;;;;6.72;6.43;;;;;;;-143.83;100.00;62900.06;5108349;28;20026;-66
2022/07/26 08:08:05;;;;;;;6.90;6.60;;;;;;;-143.83;100.00;62900.06;5098613;28;20023;-67
2022/07/26 08:10:31;;;;;;;6.90;6.60;;;;;;;-143.83;100.00;62900.06;5108607;28;20154;-66
2022/07/26 08:12:56;;;;;;;7.18;6.88;;;;;;;-143.83;100.00;62900.06;5112147;27;20067;-67
2022/07/26 08:15:22;;;;;;;7.00;6.70;;;;;;;-143.83;100.00;62900.06;5109733;27;20036;-65
2022/07/26 08:17:49;;;;;;;6.90;6.60;;;;;;;-143.83;100.00;62900.06;5103690;28;20111;-65
2022/07/26 08:20:14;;;;;;;7.03;6.72;;;;;;;-143.83;100.00;62900.06;5106277;28;20031;-65
2022/07/26 08:22:40;;;;;;;7.07;6.78;;;;;;;-143.83;100.00;62900.06;5108970;28;20019;-65
2022/07/26 08:25:06;;;;;;;7.13;6.82;;;;;;;-143.83;100.00;62900.06;5107794;28;20052;-65
2022/07/26 08:27:32;;;;;;;7.20;6.90;;;;;;;-143.83;100.00;62900.06;5107686;27;20501;-64
2022/07/26 08:29:57;;;;;;;6.97;6.68;;;;;;;-143.83;100.00;62900.06;5112005;27;20408;-64
2022/07/26 08:32:23;;;;;;;7.13;6.82;;;;;;;-143.83;100.00;62900.06;5102350;28;20099;-65
2022/07/26 08:34:48;;;;;;;7.10;6.80;;;;;;;-143.83;100.00;62900.06;5108922;28;20103;-64
2022/07/26 08:37:14;;;;;;;7.03;6.72;;;;;;;-143.83;100.00;62900.06;5107932;28;20023;-64
2022/07/26 08:39:39;;;;;;;7.22;6.93;;;;;;;-143.83;100.00;62900.06;5106158;28;20032;-64
2022/07/26 08:42:14;;;;;;;7.32;7.03;;;;;;;-143.83;100.00;62900.06;5100723;28;20059;-64
2022/07/26 08:44:44;;;;;;;7.28;6.97;;;;;;;-143.83;100.00;62900.06;5108166;28;20427;-61
2022/07/26 08:47:14;;;;;;;6.90;6.60;;;;;;;-143.83;100.00;62900.06;5113026;27;20490;-65
2022/07/26 08:49:40;;;;;;;7.28;6.97;;;;;;;-143.83;100.00;62900.06;5107284;28;20107;-64
2022/07/26 08:52:07;;;;;;;7.30;7.00;;;;;;;-143.83;100.00;62900.06;5108597;28;20034;-64
2022/07/26 08:54:33;;;;;;;7.40;7.10;;;;;;;-143.83;100.00;62900.06;5103495;28;20024;-64
2022/07/26 08:56:59;;;;;;;6.93;6.63;;;;;;;-143.83;100.00;62900.06;5104811;28;20076;-65
2022/07/26 08:59:25;;;;;;;7.10;6.80;;;;;;;-143.83;100.00;62900.06;5106643;28;20136;-63
2022/07/26 09:02:03;;;;;;;7.10;6.80;;;;;;;-143.83;100.00;62900.06;5100173;28;20038;-64
2022/07/26 09:04:29;;;;;;;7.10;6.80;;;;;;;-143.83;100.00;62900.06;5110104;27;20054;-63
2022/07/26 09:07:10;;;;;;;6.90;6.60;;;;;;;-143.83;100.00;62900.06;5105121;28;20034;-64
2022/07/26 09:09:38;;;;;;;7.03;6.72;;;;;;;-143.83;100.00;62900.06;5107536;28;20027;-64
2022/07/26 09:12:18;;;;;;;7.30;7.00;;;;;;;-143.83;100.00;62900.06;5106011;28;20410;-64
2022/07/26 09:14:45;;;;;;;7.03;6.72;;;;;;;-143.83;100.00;62900.06;5101402;28;20024;-65
2022/07/26 09:17:12;;;;;;;7.18;6.88;;;;;;;-143.83;100.00;62900.06;5099183;28;20107;-65
2022/07/26 09:19:38;;;;;;;7.00;6.70;;;;;;;-143.83;100.00;62900.06;5108004;28;20015;-64
2022/07/26 09:22:13;;;;;;;7.10;6.80;;;;;;;-143.83;100.00;62900.06;5097142;27;20057;-65
2022/07/26 09:24:46;;;;;;;7.03;6.72;;;;;;;-143.83;100.00;62900.06;5107170;28;20517;-66
2022/07/26 09:27:14;;;;;;;6.95;6.65;;;;;;;-143.83;100.00;62900.06;5100536;28;20040;-66
2022/07/26 09:29:50;;;;;;;7.10;6.80;;;;;;;-143.83;100.00;62900.06;5102561;28;20103;-65
2022/07/26 09:32:25;;;;;;;6.97;6.68;;;;;;;-143.83;100.00;62900.06;5107852;28;20051;-66
2022/07/26 09:34:56;;;;;;;7.00;6.70;;;;;;;-143.83;100.00;62900.06;5108303;28;20042;-65
2022/07/26 09:37:35;;;;;;;6.90;6.60;;;;;;;-143.83;100.00;62900.06;5105421;28;20027;-65
2022/07/26 09:40:05;;;;;;;6.78;6.47;;;;;;;-143.83;100.00;62900.06;5107749;28;20042;-65
2022/07/26 09:42:31;;;;;;;7.03;6.72;;;;;;;-143.83;100.00;62900.06;5095669;28;20043;-64
2022/07/26 09:44:57;;;;;;;6.95;6.65;;;;;;;-143.83;100.00;62900.06;5106309;28;20030;-66
2022/07/26 09:47:38;;;;;;;6.90;6.60;;;;;;;-143.83;100.00;62900.06;5108132;28;20035;-63
2022/07/26 09:50:16;;;;;;;6.80;6.50;;;;;;;-143.83;100.00;62900.06;5106305;28;20170;-65
2022/07/26 09:53:01;;;;;;;6.85;6.55;;;;;;;-143.83;100.00;62900.06;5107079;28;20075;-65
2022/07/26 09:55:27;;;;;;;6.60;6.30;;;;;;;-143.83;100.00;62900.06;5111307;28;20043;-64
2022/07/26 09:57:53;;;;;;;6.90;6.60;;;;;;;-143.83;100.00;62900.06;5098254;28;20030;-64
2022/07/26 10:00:19;;;;;;;7.10;6.80;;;;;;;-143.83;100.00;62900.06;5104519;28;20015;-65
2022/07/26 10:02:45;;;;;;;7.10;6.80;;;;;;;-143.83;100.00;62900.06;5104062;28;20022;-65
2022/07/26 10:05:10;;;;;;;6.90;6.60;;;;;;;-143.83;100.00;62900.06;5108839;28;20126;-63
2022/07/26 10:07:36;;;;;;;6.88;6.57;;;;;;;-143.83;100.00;62900.06;5109183;28;20027;-64
2022/07/26 10:10:02;;;;;;;7.00;6.70;;;;;;;-143.83;100.00;62900.06;5107047;28;20108;-66
2022/07/26 10:12:31;;;;;;;6.80;6.50;;;;;;;-143.83;100.00;62900.06;5107517;28;20576;-64
2022/07/26 10:14:57;;;;;;;7.00;6.70;;;;;;;-143.83;100.00;62900.06;5103944;28;20510;-65
2022/07/26 10:17:28;;;;;;;7.00;6.70;;;;;;;-143.83;100.00;62900.06;5107888;28;20030;-66
2022/07/26 10:20:04;;;;;;;6.85;6.55;;;;;;;-143.83;100.00;62900.06;5104246;28;20044;-64
2022/07/26 10:22:34;;;;;;;7.18;6.88;;;;;;;-143.83;100.00;62900.06;5107868;28;20055;-64
2022/07/26 10:25:18;;;;;;;6.88;6.57;;;;;;;-143.83;100.00;62900.06;5101565;28;20023;-64
2022/07/26 10:27:52;;;;;;;6.82;6.53;;;;;;;-143.83;100.00;62900.06;5112469;28;20031;-65
2022/07/26 10:30:21;;;;;;;6.80;6.50;;;;;;;-143.83;100.00;62900.06;5107079;28;20031;-65
2022/07/26 10:32:56;;;;;;;6.90;6.60;;;;;;;-143.83;100.00;62900.06;5104424;28;20028;-65
2022/07/26 10:35:33;;;;;;;7.20;6.90;;;;;;;-143.83;100.00;62900.06;5110851;28;20061;-65
2022/07/26 10:37:59;;;;;;;7.00;6.70;;;;;;;-143.83;100.00;62900.06;5098711;28;20031;-64
2022/07/26 10:40:28;;;;;;;7.10;6.80;;;;;;;-143.83;100.00;62900.06;5102342;28;20073;-64
2022/07/26 10:43:06;;;;;;;6.90;6.60;;;;;;;-143.83;100.00;62900.06;5111011;28;20340;-64
2022/07/26 10:45:32;;;;;;;7.10;6.80;;;;;;;-143.83;100.00;62900.06;5110327;27;20038;-65
2022/07/26 10:48:28;;;;;;;6.88;6.57;;;;;;;-143.83;100.00;62900.06;5107928;28;20027;-64
2022/07/26 10:50:53;;;;;;;7.00;6.70;;;;;;;-143.83;100.00;62900.06;5099857;28;20070;-66
2022/07/26 10:53:24;;;;;;;6.97;6.68;;;;;;;-143.83;100.00;62900.06;5108551;28;20063;-64
2022/07/26 10:55:55;;;;;;;6.70;6.40;;;;;;;-143.83;100.00;62900.06;5110066;28;20055;-64
2022/07/26 10:58:21;;;;;;;6.72;6.43;;;;;;;-143.83;100.00;62900.06;5107432;28;20023;-64
2022/07/26 11:01:02;;;;;;;6.88;6.57;;;;;;;-143.83;100.00;62900.06;5104667;28;20062;-64
2022/07/26 11:03:39;;;;;;;7.10;6.80;;;;;;;-143.83;100.00;62900.06;5122414;27;20452;-62
2022/07/26 11:06:13;;;;;;;6.90;6.60;;;;;;;-143.83;100.00;62900.06;5109280;28;20071;-64
2022/07/26 11:08:38;;;;;;;6.90;6.60;;;;;;;-143.83;100.00;62900.06;5109966;28;20077;-64